sensor_id;sensor_type;location;lat;lon;timestamp;temperature;humidity
65231;DHT22;51813;40.666;16.602;2023-06-04T00:00:46;21.10;65.60
65231;DHT22;51813;40.666;16.602;2023-06-04T00:03:12;21.10;65.70
65231;DHT22;51813;40.666;16.602;2023-06-04T00:05:38;21.10;65.50
65231;DHT22;51813;40.666;16.602;2023-06-04T00:08:04;21.10;65.60
65231;DHT22;51813;40.666;16.602;2023-06-04T00:10:29;21.10;65.70
65231;DHT22;51813;40.666;16.602;2023-06-04T00:12:56;21.10;65.80
65231;DHT22;51813;40.666;16.602;2023-06-04T00:15:22;21.10;65.80
65231;DHT22;51813;40.666;16.602;2023-06-04T00:17:48;21.10;65.80
65231;DHT22;51813;40.666;16.602;2023-06-04T00:20:13;21.10;65.80
65231;DHT22;51813;40.666;16.602;2023-06-04T00:22:39;21.10;64.80
65231;DHT22;51813;40.666;16.602;2023-06-04T00:25:08;21.00;65.80
65231;DHT22;51813;40.666;16.602;2023-06-04T00:27:34;21.00;65.80
65231;DHT22;51813;40.666;16.602;2023-06-04T00:30:00;20.90;64.90
65231;DHT22;51813;40.666;16.602;2023-06-04T00:32:25;20.90;66.20
65231;DHT22;51813;40.666;16.602;2023-06-04T00:34:52;21.00;66.20
65231;DHT22;51813;40.666;16.602;2023-06-04T00:37:18;21.00;66.00
65231;DHT22;51813;40.666;16.602;2023-06-04T00:39:43;21.10;65.80
65231;DHT22;51813;40.666;16.602;2023-06-04T00:42:09;21.00;65.80
65231;DHT22;51813;40.666;16.602;2023-06-04T00:44:35;21.00;65.80
65231;DHT22;51813;40.666;16.602;2023-06-04T00:47:02;21.10;65.80
65231;DHT22;51813;40.666;16.602;2023-06-04T00:49:28;21.00;65.90
65231;DHT22;51813;40.666;16.602;2023-06-04T00:51:54;21.00;66.20
65231;DHT22;51813;40.666;16.602;2023-06-04T00:54:20;21.00;65.80
65231;DHT22;51813;40.666;16.602;2023-06-04T00:56:47;21.00;65.70
65231;DHT22;51813;40.666;16.602;2023-06-04T00:59:13;20.90;65.60
65231;DHT22;51813;40.666;16.602;2023-06-04T01:02:03;20.90;65.80
65231;DHT22;51813;40.666;16.602;2023-06-04T01:05:25;20.80;65.90
65231;DHT22;51813;40.666;16.602;2023-06-04T01:07:22;20.70;66.70
65231;DHT22;51813;40.666;16.602;2023-06-04T01:09:50;20.90;65.40
65231;DHT22;51813;40.666;16.602;2023-06-04T01:12:16;20.80;65.90
65231;DHT22;51813;40.666;16.602;2023-06-04T01:14:42;20.80;66.20
65231;DHT22;51813;40.666;16.602;2023-06-04T01:17:18;20.80;65.20
65231;DHT22;51813;40.666;16.602;2023-06-04T01:22:43;20.80;66.20
65231;DHT22;51813;40.666;16.602;2023-06-04T01:25:24;20.90;65.40
65231;DHT22;51813;40.666;16.602;2023-06-04T01:27:54;20.90;66.30
65231;DHT22;51813;40.666;16.602;2023-06-04T01:30:26;20.90;65.40
65231;DHT22;51813;40.666;16.602;2023-06-04T01:32:55;20.90;66.10
65231;DHT22;51813;40.666;16.602;2023-06-04T01:35:21;20.90;65.40
65231;DHT22;51813;40.666;16.602;2023-06-04T01:37:47;20.80;65.50
65231;DHT22;51813;40.666;16.602;2023-06-04T01:40:14;20.80;66.00
65231;DHT22;51813;40.666;16.602;2023-06-04T01:42:41;20.90;66.20
65231;DHT22;51813;40.666;16.602;2023-06-04T01:45:07;20.90;65.90
65231;DHT22;51813;40.666;16.602;2023-06-04T01:47:33;20.90;65.90
65231;DHT22;51813;40.666;16.602;2023-06-04T01:50:00;20.90;65.30
65231;DHT22;51813;40.666;16.602;2023-06-04T01:52:26;20.80;66.10
65231;DHT22;51813;40.666;16.602;2023-06-04T01:54:52;20.80;65.60
65231;DHT22;51813;40.666;16.602;2023-06-04T01:57:21;20.70;66.40
65231;DHT22;51813;40.666;16.602;2023-06-04T01:59:47;20.80;66.40
65231;DHT22;51813;40.666;16.602;2023-06-04T02:02:14;20.80;66.20
65231;DHT22;51813;40.666;16.602;2023-06-04T02:04:40;20.90;66.00
65231;DHT22;51813;40.666;16.602;2023-06-04T02:07:10;20.90;65.90
65231;DHT22;51813;40.666;16.602;2023-06-04T02:09:36;20.90;65.60
65231;DHT22;51813;40.666;16.602;2023-06-04T02:12:03;20.90;66.00
65231;DHT22;51813;40.666;16.602;2023-06-04T02:14:28;20.90;65.80
65231;DHT22;51813;40.666;16.602;2023-06-04T02:19:21;20.90;65.70
65231;DHT22;51813;40.666;16.602;2023-06-04T02:21:47;20.90;65.70
65231;DHT22;51813;40.666;16.602;2023-06-04T02:24:12;20.90;65.70
65231;DHT22;51813;40.666;16.602;2023-06-04T02:26:38;20.90;65.70
65231;DHT22;51813;40.666;16.602;2023-06-04T02:29:05;20.90;65.80
65231;DHT22;51813;40.666;16.602;2023-06-04T02:31:30;20.90;65.70
65231;DHT22;51813;40.666;16.602;2023-06-04T02:33:56;20.90;65.50
65231;DHT22;51813;40.666;16.602;2023-06-04T02:36:22;20.90;65.70
65231;DHT22;51813;40.666;16.602;2023-06-04T02:38:47;20.90;65.70
65231;DHT22;51813;40.666;16.602;2023-06-04T02:41:13;20.90;65.70
65231;DHT22;51813;40.666;16.602;2023-06-04T02:43:39;20.90;65.70
65231;DHT22;51813;40.666;16.602;2023-06-04T02:46:04;20.90;65.80
65231;DHT22;51813;40.666;16.602;2023-06-04T02:48:31;20.90;65.70
65231;DHT22;51813;40.666;16.602;2023-06-04T02:50:57;20.90;65.70
65231;DHT22;51813;40.666;16.602;2023-06-04T02:53:23;20.90;65.70
65231;DHT22;51813;40.666;16.602;2023-06-04T02:55:49;20.90;65.80
65231;DHT22;51813;40.666;16.602;2023-06-04T02:58:17;20.90;65.70
65231;DHT22;51813;40.666;16.602;2023-06-04T03:00:43;20.90;65.70
65231;DHT22;51813;40.666;16.602;2023-06-04T03:03:08;20.90;65.70
65231;DHT22;51813;40.666;16.602;2023-06-04T03:05:34;20.90;65.70
65231;DHT22;51813;40.666;16.602;2023-06-04T03:08:02;20.90;65.70
65231;DHT22;51813;40.666;16.602;2023-06-04T03:10:29;20.90;65.70
65231;DHT22;51813;40.666;16.602;2023-06-04T03:12:55;20.90;65.70
65231;DHT22;51813;40.666;16.602;2023-06-04T03:15:20;20.90;65.70
65231;DHT22;51813;40.666;16.602;2023-06-04T03:17:46;20.90;65.80
65231;DHT22;51813;40.666;16.602;2023-06-04T03:20:12;20.90;65.80
65231;DHT22;51813;40.666;16.602;2023-06-04T03:22:38;20.90;65.90
65231;DHT22;51813;40.666;16.602;2023-06-04T03:25:04;20.90;65.70
65231;DHT22;51813;40.666;16.602;2023-06-04T03:27:32;20.90;65.80
65231;DHT22;51813;40.666;16.602;2023-06-04T03:29:57;20.80;65.70
65231;DHT22;51813;40.666;16.602;2023-06-04T03:32:23;20.90;65.70
65231;DHT22;51813;40.666;16.602;2023-06-04T03:34:49;20.90;65.70
65231;DHT22;51813;40.666;16.602;2023-06-04T03:37:16;20.90;65.70
65231;DHT22;51813;40.666;16.602;2023-06-04T03:39:41;20.90;65.80
65231;DHT22;51813;40.666;16.602;2023-06-04T03:42:07;20.80;65.80
65231;DHT22;51813;40.666;16.602;2023-06-04T03:44:33;20.80;65.80
65231;DHT22;51813;40.666;16.602;2023-06-04T03:46:58;20.80;65.70
65231;DHT22;51813;40.666;16.602;2023-06-04T03:49:24;20.80;65.80
65231;DHT22;51813;40.666;16.602;2023-06-04T03:51:50;20.80;65.80
65231;DHT22;51813;40.666;16.602;2023-06-04T03:54:16;20.80;65.70
65231;DHT22;51813;40.666;16.602;2023-06-04T03:56:43;20.80;65.70
65231;DHT22;51813;40.666;16.602;2023-06-04T03:59:09;20.80;65.80
65231;DHT22;51813;40.666;16.602;2023-06-04T04:01:35;20.80;65.70
65231;DHT22;51813;40.666;16.602;2023-06-04T04:04:01;20.80;65.70
65231;DHT22;51813;40.666;16.602;2023-06-04T04:06:27;20.80;65.90
65231;DHT22;51813;40.666;16.602;2023-06-04T04:08:52;20.80;66.50
65231;DHT22;51813;40.666;16.602;2023-06-04T04:11:18;20.80;65.70
65231;DHT22;51813;40.666;16.602;2023-06-04T04:13:45;20.80;65.70
65231;DHT22;51813;40.666;16.602;2023-06-04T04:16:11;20.80;65.70
65231;DHT22;51813;40.666;16.602;2023-06-04T04:18:37;20.80;65.70
65231;DHT22;51813;40.666;16.602;2023-06-04T04:21:03;20.80;65.80
65231;DHT22;51813;40.666;16.602;2023-06-04T04:23:30;20.80;65.70
65231;DHT22;51813;40.666;16.602;2023-06-04T04:25:58;20.80;65.80
65231;DHT22;51813;40.666;16.602;2023-06-04T04:28:24;20.80;65.80
65231;DHT22;51813;40.666;16.602;2023-06-04T04:30:57;20.80;65.70
65231;DHT22;51813;40.666;16.602;2023-06-04T04:33:23;20.80;65.70
65231;DHT22;51813;40.666;16.602;2023-06-04T04:35:52;20.80;65.80
65231;DHT22;51813;40.666;16.602;2023-06-04T04:38:21;20.80;65.70
65231;DHT22;51813;40.666;16.602;2023-06-04T04:40:49;20.80;65.70
65231;DHT22;51813;40.666;16.602;2023-06-04T04:43:27;20.80;65.60
65231;DHT22;51813;40.666;16.602;2023-06-04T04:45:53;20.80;65.60
65231;DHT22;51813;40.666;16.602;2023-06-04T04:48:19;20.90;65.70
65231;DHT22;51813;40.666;16.602;2023-06-04T04:50:44;20.80;65.70
65231;DHT22;51813;40.666;16.602;2023-06-04T04:53:10;20.80;65.80
65231;DHT22;51813;40.666;16.602;2023-06-04T04:55:36;20.80;65.70
65231;DHT22;51813;40.666;16.602;2023-06-04T04:58:01;20.80;65.70
65231;DHT22;51813;40.666;16.602;2023-06-04T05:00:28;20.90;65.60
65231;DHT22;51813;40.666;16.602;2023-06-04T05:02:54;20.90;65.60
65231;DHT22;51813;40.666;16.602;2023-06-04T05:05:19;20.80;65.70
65231;DHT22;51813;40.666;16.602;2023-06-04T05:07:45;20.80;65.60
65231;DHT22;51813;40.666;16.602;2023-06-04T05:10:11;20.80;65.60
65231;DHT22;51813;40.666;16.602;2023-06-04T05:12:38;20.80;65.60
65231;DHT22;51813;40.666;16.602;2023-06-04T05:15:04;20.80;65.60
65231;DHT22;51813;40.666;16.602;2023-06-04T05:17:30;20.90;65.70
65231;DHT22;51813;40.666;16.602;2023-06-04T05:19:56;20.90;65.70
65231;DHT22;51813;40.666;16.602;2023-06-04T05:22:37;20.80;65.60
65231;DHT22;51813;40.666;16.602;2023-06-04T05:25:03;20.80;65.60
65231;DHT22;51813;40.666;16.602;2023-06-04T05:27:29;20.80;65.80
65231;DHT22;51813;40.666;16.602;2023-06-04T05:30:00;20.80;65.50
65231;DHT22;51813;40.666;16.602;2023-06-04T05:32:26;20.90;65.70
65231;DHT22;51813;40.666;16.602;2023-06-04T05:34:54;20.90;65.70
65231;DHT22;51813;40.666;16.602;2023-06-04T05:37:23;20.90;65.70
65231;DHT22;51813;40.666;16.602;2023-06-04T05:39:50;20.90;65.70
65231;DHT22;51813;40.666;16.602;2023-06-04T05:42:16;20.80;65.70
65231;DHT22;51813;40.666;16.602;2023-06-04T05:44:41;20.80;65.60
65231;DHT22;51813;40.666;16.602;2023-06-04T05:47:07;20.80;65.80
65231;DHT22;51813;40.666;16.602;2023-06-04T05:49:36;20.90;65.70
65231;DHT22;51813;40.666;16.602;2023-06-04T05:52:02;20.90;65.70
65231;DHT22;51813;40.666;16.602;2023-06-04T05:54:29;20.90;65.50
65231;DHT22;51813;40.666;16.602;2023-06-04T05:56:55;20.90;65.50
65231;DHT22;51813;40.666;16.602;2023-06-04T05:59:21;20.90;65.80
65231;DHT22;51813;40.666;16.602;2023-06-04T06:01:47;20.90;65.80
65231;DHT22;51813;40.666;16.602;2023-06-04T06:04:15;20.90;65.60
65231;DHT22;51813;40.666;16.602;2023-06-04T06:06:42;20.90;65.70
65231;DHT22;51813;40.666;16.602;2023-06-04T06:09:10;20.90;65.90
65231;DHT22;51813;40.666;16.602;2023-06-04T06:11:36;20.90;65.90
65231;DHT22;51813;40.666;16.602;2023-06-04T06:14:01;20.90;65.70
65231;DHT22;51813;40.666;16.602;2023-06-04T06:16:27;20.90;65.90
65231;DHT22;51813;40.666;16.602;2023-06-04T06:18:53;20.90;65.80
65231;DHT22;51813;40.666;16.602;2023-06-04T06:21:19;20.90;65.90
65231;DHT22;51813;40.666;16.602;2023-06-04T06:23:45;20.90;65.90
65231;DHT22;51813;40.666;16.602;2023-06-04T06:26:11;20.90;65.80
65231;DHT22;51813;40.666;16.602;2023-06-04T06:28:37;21.00;66.00
65231;DHT22;51813;40.666;16.602;2023-06-04T06:31:03;20.90;66.00
65231;DHT22;51813;40.666;16.602;2023-06-04T06:33:29;20.90;66.10
65231;DHT22;51813;40.666;16.602;2023-06-04T06:35:54;20.90;66.00
65231;DHT22;51813;40.666;16.602;2023-06-04T06:38:20;20.90;66.30
65231;DHT22;51813;40.666;16.602;2023-06-04T06:40:46;20.90;66.30
65231;DHT22;51813;40.666;16.602;2023-06-04T06:43:12;20.90;66.20
65231;DHT22;51813;40.666;16.602;2023-06-04T06:45:37;20.90;66.20
65231;DHT22;51813;40.666;16.602;2023-06-04T06:48:04;21.00;66.30
65231;DHT22;51813;40.666;16.602;2023-06-04T06:50:30;20.90;66.40
65231;DHT22;51813;40.666;16.602;2023-06-04T06:52:55;20.90;66.30
65231;DHT22;51813;40.666;16.602;2023-06-04T06:55:21;20.90;66.20
65231;DHT22;51813;40.666;16.602;2023-06-04T06:57:47;20.90;66.40
65231;DHT22;51813;40.666;16.602;2023-06-04T07:00:13;20.90;66.40
65231;DHT22;51813;40.666;16.602;2023-06-04T07:02:38;20.90;66.40
65231;DHT22;51813;40.666;16.602;2023-06-04T07:05:04;20.90;66.30
65231;DHT22;51813;40.666;16.602;2023-06-04T07:07:30;20.90;66.40
65231;DHT22;51813;40.666;16.602;2023-06-04T07:09:56;20.90;66.60
65231;DHT22;51813;40.666;16.602;2023-06-04T07:12:22;20.90;66.50
65231;DHT22;51813;40.666;16.602;2023-06-04T07:14:47;20.90;66.60
65231;DHT22;51813;40.666;16.602;2023-06-04T07:17:13;20.90;66.60
65231;DHT22;51813;40.666;16.602;2023-06-04T07:19:39;20.90;66.60
65231;DHT22;51813;40.666;16.602;2023-06-04T07:22:04;20.90;66.60
65231;DHT22;51813;40.666;16.602;2023-06-04T07:24:30;21.00;66.60
65231;DHT22;51813;40.666;16.602;2023-06-04T07:26:56;20.90;66.60
65231;DHT22;51813;40.666;16.602;2023-06-04T07:29:22;21.00;66.60
65231;DHT22;51813;40.666;16.602;2023-06-04T07:31:47;20.90;66.60
65231;DHT22;51813;40.666;16.602;2023-06-04T07:34:13;20.90;66.70
65231;DHT22;51813;40.666;16.602;2023-06-04T07:36:39;20.90;66.70
65231;DHT22;51813;40.666;16.602;2023-06-04T07:39:05;20.90;66.70
65231;DHT22;51813;40.666;16.602;2023-06-04T07:41:31;20.90;66.80
65231;DHT22;51813;40.666;16.602;2023-06-04T07:43:56;21.00;66.60
65231;DHT22;51813;40.666;16.602;2023-06-04T07:46:22;21.00;66.70
65231;DHT22;51813;40.666;16.602;2023-06-04T07:48:48;21.00;66.80
65231;DHT22;51813;40.666;16.602;2023-06-04T07:51:14;21.00;66.80
65231;DHT22;51813;40.666;16.602;2023-06-04T07:53:40;21.00;66.80
65231;DHT22;51813;40.666;16.602;2023-06-04T07:56:06;21.00;66.80
65231;DHT22;51813;40.666;16.602;2023-06-04T07:58:32;20.90;66.70
65231;DHT22;51813;40.666;16.602;2023-06-04T08:00:57;21.00;66.90
65231;DHT22;51813;40.666;16.602;2023-06-04T08:03:23;21.00;66.90
65231;DHT22;51813;40.666;16.602;2023-06-04T08:05:49;21.00;66.90
65231;DHT22;51813;40.666;16.602;2023-06-04T08:08:15;21.00;66.80
65231;DHT22;51813;40.666;16.602;2023-06-04T08:10:41;21.00;66.90
65231;DHT22;51813;40.666;16.602;2023-06-04T08:13:07;21.00;66.90
65231;DHT22;51813;40.666;16.602;2023-06-04T08:15:34;21.00;67.10
65231;DHT22;51813;40.666;16.602;2023-06-04T08:18:00;21.00;67.00
65231;DHT22;51813;40.666;16.602;2023-06-04T08:20:25;21.00;66.90
65231;DHT22;51813;40.666;16.602;2023-06-04T08:22:51;21.00;67.10
65231;DHT22;51813;40.666;16.602;2023-06-04T08:25:17;21.00;67.10
65231;DHT22;51813;40.666;16.602;2023-06-04T08:27:43;21.00;67.10
65231;DHT22;51813;40.666;16.602;2023-06-04T08:30:09;21.00;67.10
65231;DHT22;51813;40.666;16.602;2023-06-04T08:32:35;21.00;67.20
65231;DHT22;51813;40.666;16.602;2023-06-04T08:35:00;21.00;67.20
65231;DHT22;51813;40.666;16.602;2023-06-04T08:37:26;21.00;67.20
65231;DHT22;51813;40.666;16.602;2023-06-04T08:39:52;20.90;67.10
65231;DHT22;51813;40.666;16.602;2023-06-04T08:42:31;21.00;67.30
65231;DHT22;51813;40.666;16.602;2023-06-04T08:45:00;21.00;67.30
65231;DHT22;51813;40.666;16.602;2023-06-04T08:47:26;21.00;67.10
65231;DHT22;51813;40.666;16.602;2023-06-04T08:49:52;21.00;67.30
65231;DHT22;51813;40.666;16.602;2023-06-04T08:52:19;21.00;67.20
65231;DHT22;51813;40.666;16.602;2023-06-04T08:54:49;21.00;67.30
65231;DHT22;51813;40.666;16.602;2023-06-04T08:57:17;21.00;67.20
65231;DHT22;51813;40.666;16.602;2023-06-04T08:59:43;21.00;67.20
65231;DHT22;51813;40.666;16.602;2023-06-04T09:02:11;21.00;67.30
65231;DHT22;51813;40.666;16.602;2023-06-04T09:04:39;21.00;67.30
65231;DHT22;51813;40.666;16.602;2023-06-04T09:07:06;21.00;67.40
65231;DHT22;51813;40.666;16.602;2023-06-04T09:09:37;21.00;68.10
65231;DHT22;51813;40.666;16.602;2023-06-04T09:12:03;21.00;67.30
65231;DHT22;51813;40.666;16.602;2023-06-04T09:14:31;21.00;67.40
65231;DHT22;51813;40.666;16.602;2023-06-04T09:16:57;21.00;67.40
65231;DHT22;51813;40.666;16.602;2023-06-04T09:19:24;21.00;67.50
65231;DHT22;51813;40.666;16.602;2023-06-04T09:21:51;21.00;67.50
65231;DHT22;51813;40.666;16.602;2023-06-04T09:24:18;21.00;67.50
65231;DHT22;51813;40.666;16.602;2023-06-04T09:26:44;21.00;67.60
65231;DHT22;51813;40.666;16.602;2023-06-04T09:29:10;21.00;67.60
65231;DHT22;51813;40.666;16.602;2023-06-04T09:31:36;21.00;67.50
65231;DHT22;51813;40.666;16.602;2023-06-04T09:34:03;21.00;67.50
65231;DHT22;51813;40.666;16.602;2023-06-04T09:36:36;21.00;67.40
65231;DHT22;51813;40.666;16.602;2023-06-04T09:39:22;21.00;67.50
65231;DHT22;51813;40.666;16.602;2023-06-04T09:42:01;21.00;67.50
65231;DHT22;51813;40.666;16.602;2023-06-04T09:44:28;21.00;67.40
65231;DHT22;51813;40.666;16.602;2023-06-04T09:46:55;21.10;67.50
65231;DHT22;51813;40.666;16.602;2023-06-04T09:49:21;21.10;67.90
65231;DHT22;51813;40.666;16.602;2023-06-04T09:51:48;21.10;67.50
65231;DHT22;51813;40.666;16.602;2023-06-04T09:54:14;21.10;67.30
65231;DHT22;51813;40.666;16.602;2023-06-04T09:56:40;21.10;67.40
65231;DHT22;51813;40.666;16.602;2023-06-04T09:59:08;21.10;67.30
65231;DHT22;51813;40.666;16.602;2023-06-04T10:01:38;21.10;67.30
65231;DHT22;51813;40.666;16.602;2023-06-04T10:04:07;21.10;67.40
65231;DHT22;51813;40.666;16.602;2023-06-04T10:06:34;21.10;67.30
65231;DHT22;51813;40.666;16.602;2023-06-04T10:09:08;21.10;67.40
65231;DHT22;51813;40.666;16.602;2023-06-04T10:11:37;21.10;67.50
65231;DHT22;51813;40.666;16.602;2023-06-04T10:14:27;21.10;67.60
65231;DHT22;51813;40.666;16.602;2023-06-04T10:16:52;21.10;67.60
65231;DHT22;51813;40.666;16.602;2023-06-04T10:19:18;21.10;67.50
65231;DHT22;51813;40.666;16.602;2023-06-04T10:21:44;21.10;67.40
65231;DHT22;51813;40.666;16.602;2023-06-04T10:24:13;21.10;67.40
65231;DHT22;51813;40.666;16.602;2023-06-04T10:26:40;21.10;67.50
65231;DHT22;51813;40.666;16.602;2023-06-04T10:29:08;21.10;67.50
65231;DHT22;51813;40.666;16.602;2023-06-04T10:31:36;21.10;67.50
65231;DHT22;51813;40.666;16.602;2023-06-04T10:34:02;21.10;67.30
65231;DHT22;51813;40.666;16.602;2023-06-04T10:36:28;21.10;67.40
65231;DHT22;51813;40.666;16.602;2023-06-04T10:38:55;21.10;67.50
65231;DHT22;51813;40.666;16.602;2023-06-04T10:41:22;21.10;67.40
65231;DHT22;51813;40.666;16.602;2023-06-04T10:43:49;21.10;67.50
65231;DHT22;51813;40.666;16.602;2023-06-04T10:46:17;21.10;67.60
65231;DHT22;51813;40.666;16.602;2023-06-04T10:48:50;21.10;67.40
65231;DHT22;51813;40.666;16.602;2023-06-04T10:51:32;21.10;67.60
65231;DHT22;51813;40.666;16.602;2023-06-04T10:53:59;21.10;67.60
65231;DHT22;51813;40.666;16.602;2023-06-04T10:56:32;21.10;67.50
65231;DHT22;51813;40.666;16.602;2023-06-04T10:59:01;21.10;67.60
65231;DHT22;51813;40.666;16.602;2023-06-04T11:01:27;21.10;67.50
65231;DHT22;51813;40.666;16.602;2023-06-04T11:03:57;21.10;67.70
65231;DHT22;51813;40.666;16.602;2023-06-04T11:06:24;21.10;67.60
65231;DHT22;51813;40.666;16.602;2023-06-04T11:09:04;21.10;67.70
65231;DHT22;51813;40.666;16.602;2023-06-04T11:11:31;21.10;67.60
65231;DHT22;51813;40.666;16.602;2023-06-04T11:14:10;21.10;67.70
65231;DHT22;51813;40.666;16.602;2023-06-04T11:16:38;21.10;67.50
65231;DHT22;51813;40.666;16.602;2023-06-04T11:19:04;21.20;67.60
65231;DHT22;51813;40.666;16.602;2023-06-04T11:21:30;21.10;67.60
65231;DHT22;51813;40.666;16.602;2023-06-04T11:24:00;21.10;68.10
65231;DHT22;51813;40.666;16.602;2023-06-04T11:26:36;21.10;67.70
65231;DHT22;51813;40.666;16.602;2023-06-04T11:29:06;21.10;67.70
65231;DHT22;51813;40.666;16.602;2023-06-04T11:31:45;21.10;67.60
65231;DHT22;51813;40.666;16.602;2023-06-04T11:34:22;21.10;67.70
65231;DHT22;51813;40.666;16.602;2023-06-04T11:36:47;21.10;67.80
65231;DHT22;51813;40.666;16.602;2023-06-04T11:39:15;21.10;67.80
65231;DHT22;51813;40.666;16.602;2023-06-04T11:41:41;21.10;67.90
65231;DHT22;51813;40.666;16.602;2023-06-04T11:44:08;21.10;67.80
65231;DHT22;51813;40.666;16.602;2023-06-04T11:46:34;21.10;67.90
65231;DHT22;51813;40.666;16.602;2023-06-04T11:49:02;21.10;68.60
65231;DHT22;51813;40.666;16.602;2023-06-04T11:51:28;21.10;67.90
65231;DHT22;51813;40.666;16.602;2023-06-04T11:53:54;21.10;67.80
65231;DHT22;51813;40.666;16.602;2023-06-04T11:56:21;21.10;67.90
65231;DHT22;51813;40.666;16.602;2023-06-04T11:58:49;21.10;67.90
65231;DHT22;51813;40.666;16.602;2023-06-04T12:01:15;21.10;67.70
65231;DHT22;51813;40.666;16.602;2023-06-04T12:03:42;21.10;67.90
65231;DHT22;51813;40.666;16.602;2023-06-04T12:06:16;21.10;67.80
65231;DHT22;51813;40.666;16.602;2023-06-04T12:08:52;21.10;67.80
65231;DHT22;51813;40.666;16.602;2023-06-04T12:11:34;21.10;67.80
65231;DHT22;51813;40.666;16.602;2023-06-04T12:14:06;21.10;67.80
65231;DHT22;51813;40.666;16.602;2023-06-04T12:16:33;21.10;67.90
65231;DHT22;51813;40.666;16.602;2023-06-04T12:19:09;21.10;67.90
65231;DHT22;51813;40.666;16.602;2023-06-04T12:21:36;21.20;67.90
65231;DHT22;51813;40.666;16.602;2023-06-04T12:24:13;21.20;67.80
65231;DHT22;51813;40.666;16.602;2023-06-04T12:26:40;21.10;67.80
65231;DHT22;51813;40.666;16.602;2023-06-04T12:29:14;21.20;67.80
65231;DHT22;51813;40.666;16.602;2023-06-04T12:31:44;21.20;67.70
65231;DHT22;51813;40.666;16.602;2023-06-04T12:34:14;21.20;67.70
65231;DHT22;51813;40.666;16.602;2023-06-04T12:36:40;21.20;67.60
65231;DHT22;51813;40.666;16.602;2023-06-04T12:39:06;21.20;67.60
65231;DHT22;51813;40.666;16.602;2023-06-04T12:41:33;21.20;67.50
65231;DHT22;51813;40.666;16.602;2023-06-04T12:44:00;21.20;67.60
65231;DHT22;51813;40.666;16.602;2023-06-04T12:46:26;21.20;67.60
65231;DHT22;51813;40.666;16.602;2023-06-04T12:48:53;21.20;67.60
65231;DHT22;51813;40.666;16.602;2023-06-04T12:51:20;21.20;67.60
65231;DHT22;51813;40.666;16.602;2023-06-04T12:53:47;21.20;67.50
65231;DHT22;51813;40.666;16.602;2023-06-04T12:56:12;21.20;67.40
65231;DHT22;51813;40.666;16.602;2023-06-04T12:58:38;21.20;67.50
65231;DHT22;51813;40.666;16.602;2023-06-04T13:01:04;21.30;67.30
65231;DHT22;51813;40.666;16.602;2023-06-04T13:03:31;21.20;67.40
65231;DHT22;51813;40.666;16.602;2023-06-04T13:05:57;21.20;67.40
65231;DHT22;51813;40.666;16.602;2023-06-04T13:08:23;21.20;67.40
65231;DHT22;51813;40.666;16.602;2023-06-04T13:10:52;21.30;67.30
65231;DHT22;51813;40.666;16.602;2023-06-04T13:13:20;21.30;67.30
65231;DHT22;51813;40.666;16.602;2023-06-04T13:15:46;21.30;67.30
65231;DHT22;51813;40.666;16.602;2023-06-04T13:18:12;21.20;67.30
65231;DHT22;51813;40.666;16.602;2023-06-04T13:20:39;21.20;67.30
65231;DHT22;51813;40.666;16.602;2023-06-04T13:23:06;21.30;67.30
65231;DHT22;51813;40.666;16.602;2023-06-04T13:25:31;21.20;67.30
65231;DHT22;51813;40.666;16.602;2023-06-04T13:28:00;21.20;67.30
65231;DHT22;51813;40.666;16.602;2023-06-04T13:30:26;21.30;67.30
65231;DHT22;51813;40.666;16.602;2023-06-04T13:32:53;21.30;67.40
65231;DHT22;51813;40.666;16.602;2023-06-04T13:35:18;21.30;67.30
65231;DHT22;51813;40.666;16.602;2023-06-04T13:37:44;21.30;67.40
65231;DHT22;51813;40.666;16.602;2023-06-04T13:40:10;21.30;67.40
65231;DHT22;51813;40.666;16.602;2023-06-04T13:42:36;21.30;67.20
65231;DHT22;51813;40.666;16.602;2023-06-04T13:45:02;21.30;67.40
65231;DHT22;51813;40.666;16.602;2023-06-04T13:47:28;21.30;67.40
65231;DHT22;51813;40.666;16.602;2023-06-04T13:49:53;21.30;67.30
65231;DHT22;51813;40.666;16.602;2023-06-04T13:52:19;21.30;67.30
65231;DHT22;51813;40.666;16.602;2023-06-04T13:54:45;21.40;67.20
65231;DHT22;51813;40.666;16.602;2023-06-04T13:57:11;21.40;67.20
65231;DHT22;51813;40.666;16.602;2023-06-04T13:59:39;21.40;67.20
65231;DHT22;51813;40.666;16.602;2023-06-04T14:02:06;21.40;67.20
65231;DHT22;51813;40.666;16.602;2023-06-04T14:04:32;21.40;67.10
65231;DHT22;51813;40.666;16.602;2023-06-04T14:06:58;21.40;67.00
65231;DHT22;51813;40.666;16.602;2023-06-04T14:09:24;21.40;67.20
65231;DHT22;51813;40.666;16.602;2023-06-04T14:11:50;21.40;67.20
65231;DHT22;51813;40.666;16.602;2023-06-04T14:14:17;21.40;67.10
65231;DHT22;51813;40.666;16.602;2023-06-04T14:16:44;21.40;67.00
65231;DHT22;51813;40.666;16.602;2023-06-04T14:19:10;21.40;67.00
65231;DHT22;51813;40.666;16.602;2023-06-04T14:21:36;21.40;67.00
65231;DHT22;51813;40.666;16.602;2023-06-04T14:24:02;21.40;67.20
65231;DHT22;51813;40.666;16.602;2023-06-04T14:26:27;21.40;67.10
65231;DHT22;51813;40.666;16.602;2023-06-04T14:28:54;21.40;67.00
65231;DHT22;51813;40.666;16.602;2023-06-04T14:31:20;21.40;67.00
65231;DHT22;51813;40.666;16.602;2023-06-04T14:33:45;21.40;67.10
65231;DHT22;51813;40.666;16.602;2023-06-04T14:36:11;21.40;67.00
65231;DHT22;51813;40.666;16.602;2023-06-04T14:38:37;21.40;67.10
65231;DHT22;51813;40.666;16.602;2023-06-04T14:41:03;21.40;67.00
65231;DHT22;51813;40.666;16.602;2023-06-04T14:43:29;21.40;67.00
65231;DHT22;51813;40.666;16.602;2023-06-04T14:45:54;21.50;67.20
65231;DHT22;51813;40.666;16.602;2023-06-04T14:48:20;21.40;67.10
65231;DHT22;51813;40.666;16.602;2023-06-04T14:50:46;21.40;67.10
65231;DHT22;51813;40.666;16.602;2023-06-04T14:53:15;21.40;67.00
65231;DHT22;51813;40.666;16.602;2023-06-04T14:55:41;21.50;67.20
65231;DHT22;51813;40.666;16.602;2023-06-04T14:58:07;21.50;67.20
65231;DHT22;51813;40.666;16.602;2023-06-04T15:00:32;21.50;67.10
65231;DHT22;51813;40.666;16.602;2023-06-04T15:02:58;21.50;67.10
65231;DHT22;51813;40.666;16.602;2023-06-04T15:05:25;21.50;67.20
65231;DHT22;51813;40.666;16.602;2023-06-04T15:07:51;21.50;67.10
65231;DHT22;51813;40.666;16.602;2023-06-04T15:10:16;21.50;67.10
65231;DHT22;51813;40.666;16.602;2023-06-04T15:12:42;21.50;67.10
65231;DHT22;51813;40.666;16.602;2023-06-04T15:15:09;21.50;67.10
65231;DHT22;51813;40.666;16.602;2023-06-04T15:17:35;21.50;67.10
65231;DHT22;51813;40.666;16.602;2023-06-04T15:20:05;21.50;67.10